Columbia Falls, MT

9:00 PM MDT on October 25, 2014 (GMT -0600)
Cut Bank Municipal | Change Station
CLOSE
Current Station
Airport
Location: Cut Bank,
Elevation: 3855 ft
Nearby Weather Stations

Elev 3855 ft 48.61 °N, 112.38 °W | Updated 1 hour ago

Partly Cloudy
Partly Cloudy
45 °F
Feels Like 41 °F
N
7
Wind Variable Wind from ESE

Today
High -- | Low -- °F
--% Chance of Precip.
Yesterday
High -- | Low -- °F
Precip. -- in
8:11 AM 6:29 PM
Waxing Crescent, 5% visible
Pressure 29.64 in
Visibility 10.0 miles
Clouds Clear
Windchill 41 °F
Dew Point 38 °F
Humidity 76%
Rainfall 0.00 in
Snow Depth Not available.
UV 0 out of 12
Pollen .30 out of 12
Air Quality Not available.
Flu Activity No Activity
METAR KCTB 260156Z AUTO 11006KT 10SM CLR 07/03 A2961 RMK AO2 SLP036 T00720033

More Conditions Fewer Conditions

Pressure 29.64 in
Visibility 10.0 miles
Clouds Clear
Windchill 41 °F
Dew Point 38 °F
Humidity 76%
Rainfall 0.00 in
Snow Depth Not available.
UV 0 out of 12
Pollen .30 out of 12
Air Quality Not available.
Flu Activity No Activity
METAR KCTB 260156Z AUTO 11006KT 10SM CLR 07/03 A2961 RMK AO2 SLP036 T00720033

More Conditions Fewer Conditions

10-Day Weather Forecast

Almanac

Astronomy

Oct. 25, 2014 Rise Set
Actual Time 8:11 AM MDT 6:29 PM MDT
Civil Twilight 7:39 AM MDT 7:01 PM MDT
Nautical Twilight 7:03 AM MDT 7:37 PM MDT
Astronomical Twilight 6:27 AM MDT 8:14 PM MDT
Moon 10:01 AM MDT (10/25) 7:48 PM MDT (10/25)
Length of Visible Light 11h 21m
Length of Day
10h 17m
Tomorrow will be 3m 16s shorter.
Waxing Crescent, 5% of the Moon is Illuminated
Today
Waxing Crescent
Oct 30
First Quarter
Nov 6
Full
Nov 14
Last Quarter
Nov 22
New

Today's Extremes

State Highs State Lows

Community

WunderPhotos

Upload Photos

1,765,091 photos uploaded!

Nearby

Snow Depth

Station Depth Elevation
Many Glacier 0 in 4900 ft
Banfield Mountain 0 in 5600 ft
Badger Pass 0 in 6900 ft
Kraft Creek 1 in 4750 ft
North Fork Jocko 0 in 6330 ft

Earthquake Activity

City Distance Mag. Time & Date
No recent earthquake activity has been reported nearby.
Minimum magnitude displayed is 2.5.

Coastal Water Temperatures

Place Temperature
No Stations Reporting

Nearby Weather Stations